Forest, Indiana
Current Conditions -  °F | °C
As of 4:55 AM on Wednesday 26 Nov 2014 (Local Time) from KFKR Reporting Station
Overcast Overcast  
Wind Chill: 25°   Ceiling: 1100
Heat Index: 25°   Visibility: 10mi
Dew Point: 22°   Wind: 3mph
Humidity: 88%   Direction: 40°NE
Pressure: 30.16"   Gusts: NA
Location:  40.37°N, 86.33°W
Report Text: KFKR 260955Z AUTO 04003KT 10SM OVC011 M04/M05 A3016 RMK AO2 T10381055
Loading
Personal Weather Stations






























Interactive Weather Map New forecast layout! Learn more

10-Day Weather Forecast

Advertisements
Track Severe Weather on mobile